sensor_id;sensor_type;location;lat;lon;timestamp;temperature;humidity
19058;DHT22;9662;53.612;9.914;2022-07-30T00:00:44;20.40;99.90
19058;DHT22;9662;53.612;9.914;2022-07-30T00:03:11;20.70;99.90
19058;DHT22;9662;53.612;9.914;2022-07-30T00:05:38;20.20;99.90
19058;DHT22;9662;53.612;9.914;2022-07-30T00:08:05;20.90;99.90
19058;DHT22;9662;53.612;9.914;2022-07-30T00:10:31;20.40;99.90
19058;DHT22;9662;53.612;9.914;2022-07-30T00:13:00;20.80;99.90
19058;DHT22;9662;53.612;9.914;2022-07-30T00:15:27;20.50;99.90
19058;DHT22;9662;53.612;9.914;2022-07-30T00:17:53;20.40;99.90
19058;DHT22;9662;53.612;9.914;2022-07-30T00:20:20;21.00;99.90
19058;DHT22;9662;53.612;9.914;2022-07-30T00:22:47;20.10;99.90
19058;DHT22;9662;53.612;9.914;2022-07-30T00:25:16;20.70;99.90
19058;DHT22;9662;53.612;9.914;2022-07-30T00:27:43;20.70;99.90
19058;DHT22;9662;53.612;9.914;2022-07-30T00:30:12;20.80;99.90
19058;DHT22;9662;53.612;9.914;2022-07-30T00:32:39;20.00;99.90
19058;DHT22;9662;53.612;9.914;2022-07-30T00:35:06;19.60;99.90
19058;DHT22;9662;53.612;9.914;2022-07-30T00:37:33;19.80;99.90
19058;DHT22;9662;53.612;9.914;2022-07-30T00:40:00;20.50;99.90
19058;DHT22;9662;53.612;9.914;2022-07-30T00:42:36;20.20;99.90
19058;DHT22;9662;53.612;9.914;2022-07-30T00:45:04;20.70;99.90
19058;DHT22;9662;53.612;9.914;2022-07-30T00:47:33;20.40;99.90
19058;DHT22;9662;53.612;9.914;2022-07-30T00:49:59;20.40;99.90
19058;DHT22;9662;53.612;9.914;2022-07-30T00:52:29;19.60;99.90
19058;DHT22;9662;53.612;9.914;2022-07-30T00:54:56;19.40;99.90
19058;DHT22;9662;53.612;9.914;2022-07-30T00:57:23;19.70;99.90
19058;DHT22;9662;53.612;9.914;2022-07-30T00:59:50;19.20;99.90
19058;DHT22;9662;53.612;9.914;2022-07-30T01:02:17;19.10;99.90
19058;DHT22;9662;53.612;9.914;2022-07-30T01:04:45;19.40;99.90
19058;DHT22;9662;53.612;9.914;2022-07-30T01:07:12;19.00;99.90
19058;DHT22;9662;53.612;9.914;2022-07-30T01:09:39;18.70;99.90
19058;DHT22;9662;53.612;9.914;2022-07-30T01:12:07;18.80;99.90
19058;DHT22;9662;53.612;9.914;2022-07-30T01:14:35;18.50;99.90
19058;DHT22;9662;53.612;9.914;2022-07-30T01:17:03;18.90;99.90
19058;DHT22;9662;53.612;9.914;2022-07-30T01:19:34;18.60;99.90
19058;DHT22;9662;53.612;9.914;2022-07-30T01:22:30;18.70;99.90
19058;DHT22;9662;53.612;9.914;2022-07-30T01:25:05;18.50;99.90
19058;DHT22;9662;53.612;9.914;2022-07-30T01:27:37;18.40;99.90
19058;DHT22;9662;53.612;9.914;2022-07-30T01:30:06;18.00;99.90
19058;DHT22;9662;53.612;9.914;2022-07-30T01:32:36;18.10;99.90
19058;DHT22;9662;53.612;9.914;2022-07-30T01:35:06;18.60;99.90
19058;DHT22;9662;53.612;9.914;2022-07-30T01:37:34;18.70;99.90
19058;DHT22;9662;53.612;9.914;2022-07-30T01:40:03;18.90;99.90
19058;DHT22;9662;53.612;9.914;2022-07-30T01:42:31;18.60;99.90
19058;DHT22;9662;53.612;9.914;2022-07-30T01:45:01;18.70;99.90
19058;DHT22;9662;53.612;9.914;2022-07-30T01:47:30;18.50;99.90
19058;DHT22;9662;53.612;9.914;2022-07-30T01:49:59;18.30;99.90
19058;DHT22;9662;53.612;9.914;2022-07-30T01:52:27;18.10;99.90
19058;DHT22;9662;53.612;9.914;2022-07-30T01:54:57;18.20;99.90
19058;DHT22;9662;53.612;9.914;2022-07-30T01:57:26;18.50;99.90
19058;DHT22;9662;53.612;9.914;2022-07-30T01:59:58;18.40;99.90
19058;DHT22;9662;53.612;9.914;2022-07-30T02:02:28;18.50;99.90
19058;DHT22;9662;53.612;9.914;2022-07-30T02:04:54;18.80;99.90
19058;DHT22;9662;53.612;9.914;2022-07-30T02:07:28;19.40;99.90
19058;DHT22;9662;53.612;9.914;2022-07-30T02:10:02;18.90;99.90
19058;DHT22;9662;53.612;9.914;2022-07-30T02:12:30;18.70;99.90
19058;DHT22;9662;53.612;9.914;2022-07-30T02:15:10;18.50;99.90
19058;DHT22;9662;53.612;9.914;2022-07-30T02:17:43;18.50;99.90
19058;DHT22;9662;53.612;9.914;2022-07-30T02:20:16;18.50;99.90
19058;DHT22;9662;53.612;9.914;2022-07-30T02:22:44;18.50;99.90
19058;DHT22;9662;53.612;9.914;2022-07-30T02:25:16;18.40;99.90
19058;DHT22;9662;53.612;9.914;2022-07-30T02:27:47;18.20;99.90
19058;DHT22;9662;53.612;9.914;2022-07-30T02:30:15;18.30;99.90
19058;DHT22;9662;53.612;9.914;2022-07-30T02:32:44;18.80;99.90
19058;DHT22;9662;53.612;9.914;2022-07-30T02:35:16;19.40;99.90
19058;DHT22;9662;53.612;9.914;2022-07-30T02:37:44;19.50;99.90
19058;DHT22;9662;53.612;9.914;2022-07-30T02:40:15;19.50;99.90
19058;DHT22;9662;53.612;9.914;2022-07-30T02:42:44;19.00;99.90
19058;DHT22;9662;53.612;9.914;2022-07-30T02:45:12;19.30;99.90
19058;DHT22;9662;53.612;9.914;2022-07-30T02:47:44;19.10;99.90
19058;DHT22;9662;53.612;9.914;2022-07-30T02:50:12;19.30;99.90
19058;DHT22;9662;53.612;9.914;2022-07-30T02:52:39;19.00;99.90
19058;DHT22;9662;53.612;9.914;2022-07-30T02:55:08;19.10;99.90
19058;DHT22;9662;53.612;9.914;2022-07-30T02:57:36;19.20;99.90
19058;DHT22;9662;53.612;9.914;2022-07-30T03:00:06;19.40;99.90
19058;DHT22;9662;53.612;9.914;2022-07-30T03:02:34;18.90;99.90
19058;DHT22;9662;53.612;9.914;2022-07-30T03:05:05;19.40;99.90
19058;DHT22;9662;53.612;9.914;2022-07-30T03:07:34;19.10;99.90
19058;DHT22;9662;53.612;9.914;2022-07-30T03:10:02;19.40;99.90
19058;DHT22;9662;53.612;9.914;2022-07-30T03:12:30;19.20;99.90
19058;DHT22;9662;53.612;9.914;2022-07-30T03:14:58;19.70;99.90
19058;DHT22;9662;53.612;9.914;2022-07-30T03:17:27;19.80;99.90
19058;DHT22;9662;53.612;9.914;2022-07-30T03:19:58;19.90;99.90
19058;DHT22;9662;53.612;9.914;2022-07-30T03:22:28;20.00;99.90
19058;DHT22;9662;53.612;9.914;2022-07-30T03:24:57;19.70;99.90
19058;DHT22;9662;53.612;9.914;2022-07-30T03:27:25;19.90;99.90
19058;DHT22;9662;53.612;9.914;2022-07-30T03:29:53;19.90;99.90
19058;DHT22;9662;53.612;9.914;2022-07-30T03:32:20;19.90;99.90
19058;DHT22;9662;53.612;9.914;2022-07-30T03:34:49;19.70;99.90
19058;DHT22;9662;53.612;9.914;2022-07-30T03:37:17;19.70;99.90
19058;DHT22;9662;53.612;9.914;2022-07-30T03:39:45;19.80;99.90
19058;DHT22;9662;53.612;9.914;2022-07-30T03:42:14;19.70;99.90
19058;DHT22;9662;53.612;9.914;2022-07-30T03:44:41;19.70;99.90
19058;DHT22;9662;53.612;9.914;2022-07-30T03:47:10;19.50;99.90
19058;DHT22;9662;53.612;9.914;2022-07-30T03:49:38;19.70;99.90
19058;DHT22;9662;53.612;9.914;2022-07-30T03:52:05;19.60;99.90
19058;DHT22;9662;53.612;9.914;2022-07-30T03:54:32;19.40;99.90
19058;DHT22;9662;53.612;9.914;2022-07-30T03:57:02;19.40;99.90
19058;DHT22;9662;53.612;9.914;2022-07-30T03:59:29;19.40;99.90
19058;DHT22;9662;53.612;9.914;2022-07-30T04:01:59;19.00;99.90
19058;DHT22;9662;53.612;9.914;2022-07-30T04:04:26;19.30;99.90
19058;DHT22;9662;53.612;9.914;2022-07-30T04:06:55;19.50;99.90
19058;DHT22;9662;53.612;9.914;2022-07-30T04:09:21;19.30;99.90
19058;DHT22;9662;53.612;9.914;2022-07-30T04:11:48;19.30;99.90
19058;DHT22;9662;53.612;9.914;2022-07-30T04:14:16;19.30;99.90
19058;DHT22;9662;53.612;9.914;2022-07-30T04:16:46;19.30;99.90
19058;DHT22;9662;53.612;9.914;2022-07-30T04:19:20;19.30;99.90
19058;DHT22;9662;53.612;9.914;2022-07-30T04:21:48;19.50;99.90
19058;DHT22;9662;53.612;9.914;2022-07-30T04:24:16;19.60;99.90
19058;DHT22;9662;53.612;9.914;2022-07-30T04:26:44;19.80;99.90
19058;DHT22;9662;53.612;9.914;2022-07-30T04:29:11;19.90;99.90
19058;DHT22;9662;53.612;9.914;2022-07-30T04:31:40;19.80;99.90
19058;DHT22;9662;53.612;9.914;2022-07-30T04:34:07;20.00;99.90
19058;DHT22;9662;53.612;9.914;2022-07-30T04:36:34;20.00;99.90
19058;DHT22;9662;53.612;9.914;2022-07-30T04:39:02;20.00;99.90
19058;DHT22;9662;53.612;9.914;2022-07-30T04:41:29;19.90;99.90
19058;DHT22;9662;53.612;9.914;2022-07-30T04:43:55;20.10;99.90
19058;DHT22;9662;53.612;9.914;2022-07-30T04:46:22;20.00;99.90
19058;DHT22;9662;53.612;9.914;2022-07-30T04:48:50;19.90;99.90
19058;DHT22;9662;53.612;9.914;2022-07-30T04:51:22;19.70;99.90
19058;DHT22;9662;53.612;9.914;2022-07-30T04:53:52;19.80;99.90
19058;DHT22;9662;53.612;9.914;2022-07-30T04:56:20;19.80;99.90
19058;DHT22;9662;53.612;9.914;2022-07-30T04:58:48;20.00;99.90
19058;DHT22;9662;53.612;9.914;2022-07-30T05:01:18;19.70;99.90
19058;DHT22;9662;53.612;9.914;2022-07-30T05:03:47;20.00;99.90
19058;DHT22;9662;53.612;9.914;2022-07-30T05:06:17;19.50;99.90
19058;DHT22;9662;53.612;9.914;2022-07-30T05:08:44;18.90;99.90
19058;DHT22;9662;53.612;9.914;2022-07-30T05:11:12;19.20;99.90
19058;DHT22;9662;53.612;9.914;2022-07-30T05:13:40;19.70;99.90
19058;DHT22;9662;53.612;9.914;2022-07-30T05:16:07;19.60;99.90
19058;DHT22;9662;53.612;9.914;2022-07-30T05:18:34;19.70;99.90
19058;DHT22;9662;53.612;9.914;2022-07-30T05:21:01;19.60;99.90
19058;DHT22;9662;53.612;9.914;2022-07-30T05:23:29;19.90;99.90
19058;DHT22;9662;53.612;9.914;2022-07-30T05:25:56;19.80;99.90
19058;DHT22;9662;53.612;9.914;2022-07-30T05:28:22;19.80;99.90
19058;DHT22;9662;53.612;9.914;2022-07-30T05:30:51;19.70;99.90
19058;DHT22;9662;53.612;9.914;2022-07-30T05:33:18;19.90;99.90
19058;DHT22;9662;53.612;9.914;2022-07-30T05:35:45;19.70;99.90
19058;DHT22;9662;53.612;9.914;2022-07-30T05:38:11;19.80;99.90
19058;DHT22;9662;53.612;9.914;2022-07-30T05:40:39;19.90;99.90
19058;DHT22;9662;53.612;9.914;2022-07-30T05:43:06;19.60;99.90
19058;DHT22;9662;53.612;9.914;2022-07-30T05:45:33;19.80;99.90
19058;DHT22;9662;53.612;9.914;2022-07-30T05:48:00;19.90;99.90
19058;DHT22;9662;53.612;9.914;2022-07-30T05:50:26;19.40;99.90
19058;DHT22;9662;53.612;9.914;2022-07-30T05:52:53;19.70;99.90
19058;DHT22;9662;53.612;9.914;2022-07-30T05:55:20;19.70;99.90
19058;DHT22;9662;53.612;9.914;2022-07-30T05:57:48;20.00;99.90
19058;DHT22;9662;53.612;9.914;2022-07-30T06:00:15;19.90;99.90
19058;DHT22;9662;53.612;9.914;2022-07-30T06:02:42;19.60;99.90
19058;DHT22;9662;53.612;9.914;2022-07-30T06:05:09;20.00;99.90
19058;DHT22;9662;53.612;9.914;2022-07-30T06:07:36;20.00;99.90
19058;DHT22;9662;53.612;9.914;2022-07-30T06:10:04;19.90;99.90
19058;DHT22;9662;53.612;9.914;2022-07-30T06:12:31;20.00;99.90
19058;DHT22;9662;53.612;9.914;2022-07-30T06:14:59;20.10;99.90
19058;DHT22;9662;53.612;9.914;2022-07-30T06:17:25;20.20;99.90
19058;DHT22;9662;53.612;9.914;2022-07-30T06:19:52;20.20;99.90
19058;DHT22;9662;53.612;9.914;2022-07-30T06:22:19;20.00;99.90
19058;DHT22;9662;53.612;9.914;2022-07-30T06:24:46;19.90;99.90
19058;DHT22;9662;53.612;9.914;2022-07-30T06:27:12;20.20;99.90
19058;DHT22;9662;53.612;9.914;2022-07-30T06:29:39;20.00;99.90
19058;DHT22;9662;53.612;9.914;2022-07-30T06:32:07;20.50;99.90
19058;DHT22;9662;53.612;9.914;2022-07-30T06:34:34;20.30;99.90
19058;DHT22;9662;53.612;9.914;2022-07-30T06:37:01;20.50;99.90
19058;DHT22;9662;53.612;9.914;2022-07-30T06:39:27;20.20;99.90
19058;DHT22;9662;53.612;9.914;2022-07-30T06:41:54;20.30;99.90
19058;DHT22;9662;53.612;9.914;2022-07-30T06:44:21;20.30;99.90
19058;DHT22;9662;53.612;9.914;2022-07-30T06:46:48;20.20;99.90
19058;DHT22;9662;53.612;9.914;2022-07-30T06:49:16;20.50;99.90
19058;DHT22;9662;53.612;9.914;2022-07-30T06:51:43;20.30;99.90
19058;DHT22;9662;53.612;9.914;2022-07-30T06:54:10;20.50;99.90
19058;DHT22;9662;53.612;9.914;2022-07-30T06:56:37;20.40;99.90
19058;DHT22;9662;53.612;9.914;2022-07-30T06:59:04;20.40;99.90
19058;DHT22;9662;53.612;9.914;2022-07-30T07:01:30;20.30;99.90
19058;DHT22;9662;53.612;9.914;2022-07-30T07:03:57;20.40;99.90
19058;DHT22;9662;53.612;9.914;2022-07-30T07:06:25;20.30;99.90
19058;DHT22;9662;53.612;9.914;2022-07-30T07:08:52;20.70;99.90
19058;DHT22;9662;53.612;9.914;2022-07-30T07:11:19;20.70;99.90
19058;DHT22;9662;53.612;9.914;2022-07-30T07:13:45;20.80;99.90
19058;DHT22;9662;53.612;9.914;2022-07-30T07:16:12;21.00;99.90
19058;DHT22;9662;53.612;9.914;2022-07-30T07:18:39;20.70;99.90
19058;DHT22;9662;53.612;9.914;2022-07-30T07:21:05;20.90;99.90
19058;DHT22;9662;53.612;9.914;2022-07-30T07:23:34;20.70;99.90
19058;DHT22;9662;53.612;9.914;2022-07-30T07:26:00;21.00;99.90
19058;DHT22;9662;53.612;9.914;2022-07-30T07:28:28;21.10;99.90
19058;DHT22;9662;53.612;9.914;2022-07-30T07:30:54;21.10;99.90
19058;DHT22;9662;53.612;9.914;2022-07-30T07:33:21;21.10;99.90
19058;DHT22;9662;53.612;9.914;2022-07-30T07:35:48;21.10;99.90
19058;DHT22;9662;53.612;9.914;2022-07-30T07:38:15;21.10;99.90
19058;DHT22;9662;53.612;9.914;2022-07-30T07:40:43;21.20;99.90
19058;DHT22;9662;53.612;9.914;2022-07-30T07:43:09;21.40;99.90
19058;DHT22;9662;53.612;9.914;2022-07-30T07:45:36;21.30;99.90
19058;DHT22;9662;53.612;9.914;2022-07-30T07:48:04;21.50;99.90
19058;DHT22;9662;53.612;9.914;2022-07-30T07:50:31;21.40;99.90
19058;DHT22;9662;53.612;9.914;2022-07-30T07:52:57;21.50;99.90
19058;DHT22;9662;53.612;9.914;2022-07-30T07:55:25;21.60;99.90
19058;DHT22;9662;53.612;9.914;2022-07-30T07:57:53;21.80;99.90
19058;DHT22;9662;53.612;9.914;2022-07-30T08:00:20;21.80;99.90
19058;DHT22;9662;53.612;9.914;2022-07-30T08:02:47;21.70;99.90
19058;DHT22;9662;53.612;9.914;2022-07-30T08:05:15;21.90;99.90
19058;DHT22;9662;53.612;9.914;2022-07-30T08:07:43;22.00;99.90
19058;DHT22;9662;53.612;9.914;2022-07-30T08:10:10;21.90;99.90
19058;DHT22;9662;53.612;9.914;2022-07-30T08:12:38;22.00;99.90
19058;DHT22;9662;53.612;9.914;2022-07-30T08:15:07;21.90;99.90
19058;DHT22;9662;53.612;9.914;2022-07-30T08:17:39;21.90;99.90
19058;DHT22;9662;53.612;9.914;2022-07-30T08:20:06;22.10;99.90
19058;DHT22;9662;53.612;9.914;2022-07-30T08:22:33;22.00;99.90
19058;DHT22;9662;53.612;9.914;2022-07-30T08:25:00;22.20;99.90
19058;DHT22;9662;53.612;9.914;2022-07-30T08:27:27;22.10;99.90
19058;DHT22;9662;53.612;9.914;2022-07-30T08:29:53;22.30;99.90
19058;DHT22;9662;53.612;9.914;2022-07-30T08:32:22;22.30;99.90
19058;DHT22;9662;53.612;9.914;2022-07-30T08:34:49;22.30;99.90
19058;DHT22;9662;53.612;9.914;2022-07-30T08:37:15;22.40;99.90
19058;DHT22;9662;53.612;9.914;2022-07-30T08:39:42;22.40;99.90
19058;DHT22;9662;53.612;9.914;2022-07-30T08:42:09;22.30;99.90
19058;DHT22;9662;53.612;9.914;2022-07-30T08:44:39;22.50;99.90
19058;DHT22;9662;53.612;9.914;2022-07-30T08:47:08;22.70;99.90
19058;DHT22;9662;53.612;9.914;2022-07-30T08:49:37;22.90;99.90
19058;DHT22;9662;53.612;9.914;2022-07-30T08:52:04;23.10;99.90
19058;DHT22;9662;53.612;9.914;2022-07-30T08:54:33;22.90;99.90
19058;DHT22;9662;53.612;9.914;2022-07-30T08:57:00;22.80;99.90
19058;DHT22;9662;53.612;9.914;2022-07-30T08:59:28;22.90;99.90
19058;DHT22;9662;53.612;9.914;2022-07-30T09:01:56;23.20;99.90
19058;DHT22;9662;53.612;9.914;2022-07-30T09:04:23;23.10;99.90
19058;DHT22;9662;53.612;9.914;2022-07-30T09:06:51;23.10;99.90
19058;DHT22;9662;53.612;9.914;2022-07-30T09:09:18;23.10;99.90
19058;DHT22;9662;53.612;9.914;2022-07-30T09:11:45;23.10;99.90
19058;DHT22;9662;53.612;9.914;2022-07-30T09:14:13;23.10;99.90
19058;DHT22;9662;53.612;9.914;2022-07-30T09:16:43;23.10;99.90
19058;DHT22;9662;53.612;9.914;2022-07-30T09:19:13;23.10;99.90
19058;DHT22;9662;53.612;9.914;2022-07-30T09:21:40;23.10;99.90
19058;DHT22;9662;53.612;9.914;2022-07-30T09:24:09;23.20;99.90
19058;DHT22;9662;53.612;9.914;2022-07-30T09:26:52;23.40;99.90
19058;DHT22;9662;53.612;9.914;2022-07-30T09:29:21;23.20;99.90
19058;DHT22;9662;53.612;9.914;2022-07-30T09:31:55;22.90;99.90
19058;DHT22;9662;53.612;9.914;2022-07-30T09:34:25;23.00;99.90
19058;DHT22;9662;53.612;9.914;2022-07-30T09:36:52;23.00;99.90
19058;DHT22;9662;53.612;9.914;2022-07-30T09:39:30;23.20;99.90
19058;DHT22;9662;53.612;9.914;2022-07-30T09:41:58;23.30;99.90
19058;DHT22;9662;53.612;9.914;2022-07-30T09:44:26;23.40;99.90
19058;DHT22;9662;53.612;9.914;2022-07-30T09:46:55;23.30;99.90
19058;DHT22;9662;53.612;9.914;2022-07-30T09:49:24;23.10;99.90
19058;DHT22;9662;53.612;9.914;2022-07-30T09:51:51;23.20;99.90
19058;DHT22;9662;53.612;9.914;2022-07-30T09:54:19;23.40;99.90
19058;DHT22;9662;53.612;9.914;2022-07-30T09:59:36;23.70;99.90
19058;DHT22;9662;53.612;9.914;2022-07-30T10:02:03;24.00;99.90
19058;DHT22;9662;53.612;9.914;2022-07-30T10:04:31;24.10;99.90
19058;DHT22;9662;53.612;9.914;2022-07-30T10:06:59;24.10;99.90
19058;DHT22;9662;53.612;9.914;2022-07-30T10:09:28;24.20;99.90
19058;DHT22;9662;53.612;9.914;2022-07-30T10:11:57;23.90;99.90
19058;DHT22;9662;53.612;9.914;2022-07-30T10:14:27;23.80;99.90
19058;DHT22;9662;53.612;9.914;2022-07-30T10:16:55;24.30;99.90
19058;DHT22;9662;53.612;9.914;2022-07-30T10:19:22;24.60;99.90
19058;DHT22;9662;53.612;9.914;2022-07-30T10:21:49;24.60;99.90
19058;DHT22;9662;53.612;9.914;2022-07-30T10:24:16;24.10;99.90
19058;DHT22;9662;53.612;9.914;2022-07-30T10:26:43;22.90;99.90
19058;DHT22;9662;53.612;9.914;2022-07-30T10:29:14;23.30;99.90
19058;DHT22;9662;53.612;9.914;2022-07-30T10:31:42;23.10;99.90
19058;DHT22;9662;53.612;9.914;2022-07-30T10:34:09;23.30;99.90
19058;DHT22;9662;53.612;9.914;2022-07-30T10:36:39;23.40;99.90
19058;DHT22;9662;53.612;9.914;2022-07-30T10:39:08;23.80;99.90
19058;DHT22;9662;53.612;9.914;2022-07-30T10:41:46;24.10;99.90
19058;DHT22;9662;53.612;9.914;2022-07-30T10:44:40;24.30;99.90
19058;DHT22;9662;53.612;9.914;2022-07-30T10:47:13;24.20;99.90
19058;DHT22;9662;53.612;9.914;2022-07-30T10:49:41;24.40;99.90
19058;DHT22;9662;53.612;9.914;2022-07-30T10:52:07;24.20;99.90
19058;DHT22;9662;53.612;9.914;2022-07-30T10:54:40;23.90;99.90
19058;DHT22;9662;53.612;9.914;2022-07-30T10:57:09;24.10;99.90
19058;DHT22;9662;53.612;9.914;2022-07-30T11:00:09;23.30;99.90
19058;DHT22;9662;53.612;9.914;2022-07-30T11:02:37;24.10;99.90
19058;DHT22;9662;53.612;9.914;2022-07-30T11:05:23;24.30;99.90
19058;DHT22;9662;53.612;9.914;2022-07-30T11:07:50;24.70;99.90
19058;DHT22;9662;53.612;9.914;2022-07-30T11:10:34;25.00;99.90
19058;DHT22;9662;53.612;9.914;2022-07-30T11:13:01;25.10;99.90
19058;DHT22;9662;53.612;9.914;2022-07-30T11:15:52;24.90;99.90
19058;DHT22;9662;53.612;9.914;2022-07-30T11:18:19;25.30;99.90
19058;DHT22;9662;53.612;9.914;2022-07-30T11:21:14;24.50;99.90
19058;DHT22;9662;53.612;9.914;2022-07-30T11:23:41;25.20;99.90
19058;DHT22;9662;53.612;9.914;2022-07-30T11:26:10;25.30;99.90
19058;DHT22;9662;53.612;9.914;2022-07-30T11:28:40;25.60;99.90
19058;DHT22;9662;53.612;9.914;2022-07-30T11:31:31;25.40;99.90
19058;DHT22;9662;53.612;9.914;2022-07-30T11:34:24;26.10;99.90
19058;DHT22;9662;53.612;9.914;2022-07-30T11:37:09;26.00;99.90
19058;DHT22;9662;53.612;9.914;2022-07-30T11:40:08;26.10;99.90
19058;DHT22;9662;53.612;9.914;2022-07-30T11:42:37;26.30;99.90
19058;DHT22;9662;53.612;9.914;2022-07-30T11:45:23;26.00;99.90
19058;DHT22;9662;53.612;9.914;2022-07-30T11:47:56;25.80;99.90
19058;DHT22;9662;53.612;9.914;2022-07-30T11:50:26;25.50;99.90
19058;DHT22;9662;53.612;9.914;2022-07-30T11:52:54;25.30;99.90
19058;DHT22;9662;53.612;9.914;2022-07-30T11:55:23;25.50;99.90
19058;DHT22;9662;53.612;9.914;2022-07-30T11:57:50;25.80;99.90
19058;DHT22;9662;53.612;9.914;2022-07-30T12:00:18;25.60;99.90
19058;DHT22;9662;53.612;9.914;2022-07-30T12:02:45;25.60;99.90
19058;DHT22;9662;53.612;9.914;2022-07-30T12:05:15;26.20;99.90
19058;DHT22;9662;53.612;9.914;2022-07-30T12:07:42;26.00;99.90
19058;DHT22;9662;53.612;9.914;2022-07-30T12:10:16;26.20;99.90
19058;DHT22;9662;53.612;9.914;2022-07-30T12:12:43;26.20;99.90
19058;DHT22;9662;53.612;9.914;2022-07-30T12:15:27;26.10;99.90
19058;DHT22;9662;53.612;9.914;2022-07-30T12:17:54;25.80;99.90
19058;DHT22;9662;53.612;9.914;2022-07-30T12:20:22;26.00;99.90
19058;DHT22;9662;53.612;9.914;2022-07-30T12:22:49;26.40;99.90
19058;DHT22;9662;53.612;9.914;2022-07-30T12:25:16;25.90;99.90
19058;DHT22;9662;53.612;9.914;2022-07-30T12:27:45;25.00;99.90
19058;DHT22;9662;53.612;9.914;2022-07-30T12:30:13;25.10;99.90
19058;DHT22;9662;53.612;9.914;2022-07-30T12:32:40;25.70;99.90
19058;DHT22;9662;53.612;9.914;2022-07-30T12:35:08;26.10;99.90
19058;DHT22;9662;53.612;9.914;2022-07-30T12:37:43;25.50;99.90
19058;DHT22;9662;53.612;9.914;2022-07-30T12:40:27;25.80;99.90
19058;DHT22;9662;53.612;9.914;2022-07-30T12:42:54;25.40;99.90
19058;DHT22;9662;53.612;9.914;2022-07-30T12:45:28;25.60;99.90
19058;DHT22;9662;53.612;9.914;2022-07-30T12:47:55;25.60;99.90
19058;DHT22;9662;53.612;9.914;2022-07-30T12:50:22;26.10;99.90
19058;DHT22;9662;53.612;9.914;2022-07-30T12:52:52;26.10;99.90
19058;DHT22;9662;53.612;9.914;2022-07-30T12:55:27;25.30;99.90
19058;DHT22;9662;53.612;9.914;2022-07-30T12:57:57;26.60;99.90
19058;DHT22;9662;53.612;9.914;2022-07-30T13:00:26;26.40;99.90
19058;DHT22;9662;53.612;9.914;2022-07-30T13:02:55;26.70;99.90
19058;DHT22;9662;53.612;9.914;2022-07-30T13:05:43;26.30;99.90
19058;DHT22;9662;53.612;9.914;2022-07-30T13:08:11;26.30;99.90
19058;DHT22;9662;53.612;9.914;2022-07-30T13:10:38;25.90;99.90
19058;DHT22;9662;53.612;9.914;2022-07-30T13:13:18;25.90;99.90
19058;DHT22;9662;53.612;9.914;2022-07-30T13:15:56;25.70;99.90
19058;DHT22;9662;53.612;9.914;2022-07-30T13:18:23;26.20;99.90
19058;DHT22;9662;53.612;9.914;2022-07-30T13:20:50;25.80;99.90
19058;DHT22;9662;53.612;9.914;2022-07-30T13:23:18;25.20;99.90
19058;DHT22;9662;53.612;9.914;2022-07-30T13:25:45;25.50;99.90
19058;DHT22;9662;53.612;9.914;2022-07-30T13:28:11;25.20;99.90
19058;DHT22;9662;53.612;9.914;2022-07-30T13:30:38;25.60;99.90
19058;DHT22;9662;53.612;9.914;2022-07-30T13:33:06;25.80;99.90
19058;DHT22;9662;53.612;9.914;2022-07-30T13:35:32;25.00;99.90
19058;DHT22;9662;53.612;9.914;2022-07-30T13:37:59;25.10;99.90
19058;DHT22;9662;53.612;9.914;2022-07-30T13:40:28;25.10;99.90
19058;DHT22;9662;53.612;9.914;2022-07-30T13:42:56;25.30;99.90
19058;DHT22;9662;53.612;9.914;2022-07-30T13:45:23;25.40;99.90
19058;DHT22;9662;53.612;9.914;2022-07-30T13:47:50;25.50;99.90
19058;DHT22;9662;53.612;9.914;2022-07-30T13:50:17;25.60;99.90
19058;DHT22;9662;53.612;9.914;2022-07-30T13:52:43;25.50;99.90
19058;DHT22;9662;53.612;9.914;2022-07-30T13:55:10;24.80;99.90
19058;DHT22;9662;53.612;9.914;2022-07-30T13:57:38;25.00;99.90
19058;DHT22;9662;53.612;9.914;2022-07-30T14:00:06;25.30;99.90
19058;DHT22;9662;53.612;9.914;2022-07-30T14:02:34;25.40;99.90
19058;DHT22;9662;53.612;9.914;2022-07-30T14:05:01;25.30;99.90
19058;DHT22;9662;53.612;9.914;2022-07-30T14:07:31;25.10;99.90
19058;DHT22;9662;53.612;9.914;2022-07-30T14:09:58;25.10;99.90
19058;DHT22;9662;53.612;9.914;2022-07-30T14:12:25;24.80;99.90
19058;DHT22;9662;53.612;9.914;2022-07-30T14:14:53;24.70;99.90
19058;DHT22;9662;53.612;9.914;2022-07-30T14:17:19;25.10;99.90
19058;DHT22;9662;53.612;9.914;2022-07-30T14:19:46;25.60;99.90
19058;DHT22;9662;53.612;9.914;2022-07-30T14:22:14;25.30;99.90
19058;DHT22;9662;53.612;9.914;2022-07-30T14:24:41;25.80;99.90
19058;DHT22;9662;53.612;9.914;2022-07-30T14:27:08;25.60;99.90
19058;DHT22;9662;53.612;9.914;2022-07-30T14:29:35;25.90;99.90
19058;DHT22;9662;53.612;9.914;2022-07-30T14:32:03;26.20;99.90
19058;DHT22;9662;53.612;9.914;2022-07-30T14:34:31;25.30;99.90
19058;DHT22;9662;53.612;9.914;2022-07-30T14:36:57;25.50;99.90
19058;DHT22;9662;53.612;9.914;2022-07-30T14:39:24;25.70;99.90
19058;DHT22;9662;53.612;9.914;2022-07-30T14:41:51;26.30;99.90
19058;DHT22;9662;53.612;9.914;2022-07-30T14:44:18;26.40;99.90
19058;DHT22;9662;53.612;9.914;2022-07-30T14:46:44;26.80;99.90
19058;DHT22;9662;53.612;9.914;2022-07-30T14:49:13;26.30;99.90
19058;DHT22;9662;53.612;9.914;2022-07-30T14:51:40;25.70;99.90
19058;DHT22;9662;53.612;9.914;2022-07-30T14:54:07;26.20;99.90
19058;DHT22;9662;53.612;9.914;2022-07-30T14:56:36;25.70;99.90
19058;DHT22;9662;53.612;9.914;2022-07-30T14:59:03;26.20;99.90
19058;DHT22;9662;53.612;9.914;2022-07-30T15:01:30;26.60;99.90
19058;DHT22;9662;53.612;9.914;2022-07-30T15:03:57;27.00;99.90
19058;DHT22;9662;53.612;9.914;2022-07-30T15:06:25;27.20;99.90
19058;DHT22;9662;53.612;9.914;2022-07-30T15:08:52;27.10;99.90
19058;DHT22;9662;53.612;9.914;2022-07-30T15:11:19;27.10;99.90
19058;DHT22;9662;53.612;9.914;2022-07-30T15:13:46;26.60;99.40
19058;DHT22;9662;53.612;9.914;2022-07-30T15:16:13;27.10;99.90
19058;DHT22;9662;53.612;9.914;2022-07-30T15:18:39;27.00;99.70
19058;DHT22;9662;53.612;9.914;2022-07-30T15:21:06;26.80;98.40
19058;DHT22;9662;53.612;9.914;2022-07-30T15:23:34;26.80;99.00
19058;DHT22;9662;53.612;9.914;2022-07-30T15:26:01;26.30;98.70
19058;DHT22;9662;53.612;9.914;2022-07-30T15:28:28;26.30;98.00
19058;DHT22;9662;53.612;9.914;2022-07-30T15:30:55;26.30;98.40
19058;DHT22;9662;53.612;9.914;2022-07-30T15:33:22;26.50;98.40
19058;DHT22;9662;53.612;9.914;2022-07-30T15:35:49;26.50;99.00
19058;DHT22;9662;53.612;9.914;2022-07-30T15:38:16;26.30;99.90
19058;DHT22;9662;53.612;9.914;2022-07-30T15:40:44;25.70;99.90
19058;DHT22;9662;53.612;9.914;2022-07-30T15:43:11;25.80;99.90
19058;DHT22;9662;53.612;9.914;2022-07-30T15:45:37;26.00;99.90
19058;DHT22;9662;53.612;9.914;2022-07-30T15:48:05;25.80;99.90
19058;DHT22;9662;53.612;9.914;2022-07-30T15:50:31;25.50;99.90
19058;DHT22;9662;53.612;9.914;2022-07-30T15:52:58;25.70;99.90
19058;DHT22;9662;53.612;9.914;2022-07-30T15:55:25;25.60;99.90
19058;DHT22;9662;53.612;9.914;2022-07-30T15:57:53;25.50;99.90